CYUL/YUL METAR and TAF weather

Enter ICAO airport designator
Station Type Date Time Source
CYUL METAR 2021/09/27 07:00 UTC NOAA

CYUL 270700Z 23006KT 190V260 15SM FEW082 13/10 A2979 RMK AC1 AC TR SLP090


Station Type Date Time Source
CYUL Decoded METAR 2021/09/27 07:00 UTC NOAA

Montreal / Pierre Elliot Trudeau International Airport, Que, Canada (CYUL) 45-28N 073-45W 36M
Sep 27, 2021 - 03:00 AM EDT / 2021.09.27 0700 UTC
Wind: from the SW (230 degrees) at 7 MPH (6 KT) (direction variable):0
Visibility: 15 mile(s):0
Sky conditions: mostly clear
Temperature: 55 F (13 C)
Dew Point: 50 F (10 C)
Relative Humidity: 81%
Pressure (altimeter): 29.79 in. Hg (1008 hPa)
ob: CYUL 270700Z 23006KT 190V260 15SM FEW082 13/10 A2979 RMK AC1 AC TR SLP090
cycle: 7

Station Type Date Time Source
CYUL TAF 2021/09/27 06:42 UTC NOAA

TAF TAF CYUL 270538Z 2706/2806 23007KT P6SM BKN080
FM270900 24010KT P6SM SCT060
FM271100 22010G20KT P6SM BKN030
TEMPO 2711/2718 5SM -SHRA BR BKN020
BECMG 2713/2715 25010G20KT
FM271800 27010G20KT P6SM -SHRA BKN020
BECMG 2719/2721 30012KT
FM272300 24007KT P6SM BKN050
FM280500 34007KT P6SM FEW050
RMK NXT FCST BY 270900Z

Example: see airport list